createdAt,value
2019-05-05T00:02:00.977Z,5.60
2019-05-05T00:07:06.433Z,6.40
2019-05-05T00:12:49.746Z,5.90
2019-05-05T00:17:55.202Z,6.90
2019-05-05T00:23:00.292Z,5.77
2019-05-05T00:28:05.295Z,5.87
2019-05-05T00:33:10.267Z,5.53
2019-05-05T00:38:15.199Z,6.40
2019-05-05T00:43:20.211Z,6.30
2019-05-05T00:48:35.507Z,5.90
2019-05-05T00:53:40.630Z,5.80
2019-05-05T00:58:52.163Z,6.00
2019-05-05T01:03:57.467Z,5.90
2019-05-05T01:09:04.273Z,6.10
2019-05-05T01:14:11.291Z,6.03
2019-05-05T01:19:16.211Z,6.03
2019-05-05T01:24:20.948Z,7.10
2019-05-05T01:29:25.927Z,7.20
2019-05-05T01:34:37.054Z,6.33
2019-05-05T01:40:00.339Z,6.63
2019-05-05T01:45:06.767Z,6.50
2019-05-05T01:50:18.404Z,6.23
2019-05-05T01:55:18.817Z,6.87
2019-05-05T02:00:25.369Z,6.93
2019-05-05T02:05:30.576Z,5.87
2019-05-05T02:10:36.047Z,6.50
2019-05-05T02:15:41.115Z,6.33
2019-05-05T02:20:55.865Z,6.10
2019-05-05T02:26:00.105Z,6.30
2019-05-05T02:31:16.403Z,5.67
2019-05-05T02:36:18.284Z,6.07
2019-05-05T02:41:25.447Z,6.60
2019-05-05T02:46:38.420Z,6.93
2019-05-05T02:51:44.833Z,6.57
2019-05-05T02:56:51.449Z,6.67
2019-05-05T03:02:09.781Z,6.43
2019-05-05T03:07:16.632Z,6.37
2019-05-05T03:12:24.247Z,7.13
2019-05-05T03:17:29.888Z,6.17
2019-05-05T03:22:35.099Z,6.30
2019-05-05T03:27:40.459Z,6.90
2019-05-05T03:32:46.033Z,6.57
2019-05-05T03:37:51.451Z,6.50
2019-05-05T03:43:04.083Z,6.60
2019-05-05T03:48:08.784Z,6.67
2019-05-05T03:53:14.429Z,6.70
2019-05-05T03:58:19.125Z,6.73
2019-05-05T04:03:24.129Z,7.30
2019-05-05T04:08:29.247Z,6.90
2019-05-05T04:13:35.180Z,7.07
2019-05-05T04:18:45.948Z,6.53
2019-05-05T04:23:50.829Z,6.60
2019-05-05T04:28:55.544Z,6.90
2019-05-05T04:34:00.464Z,6.57
2019-05-05T04:39:06.662Z,6.27
2019-05-05T04:44:14.447Z,7.30
2019-05-05T04:49:47.652Z,6.90
2019-05-05T04:54:55.463Z,7.77
2019-05-05T04:59:59.898Z,7.27
2019-05-05T05:05:11.379Z,6.53
2019-05-05T05:10:16.321Z,7.03
2019-05-05T05:15:23.894Z,8.23
2019-05-05T05:20:29.213Z,8.70
2019-05-05T05:25:34.674Z,8.50
2019-05-05T05:30:40.305Z,7.90
2019-05-05T05:35:44.118Z,8.63
2019-05-05T05:40:53.860Z,8.50
2019-05-05T05:46:21.187Z,8.43
2019-05-05T05:51:26.877Z,8.40
2019-05-05T05:56:30.903Z,8.80
2019-05-05T06:01:35.946Z,8.83
2019-05-05T06:06:40.156Z,8.60
2019-05-05T06:11:44.588Z,9.60
2019-05-05T06:16:48.734Z,9.83
2019-05-05T06:21:54.268Z,9.20
2019-05-05T06:26:59.717Z,9.20
2019-05-05T06:32:05.110Z,9.43
2019-05-05T06:37:10.383Z,10.53
2019-05-05T06:42:39.170Z,9.53
2019-05-05T06:47:44.606Z,10.37
2019-05-05T06:52:49.663Z,9.30
2019-05-05T06:57:55.151Z,9.20
2019-05-05T07:03:00.337Z,9.93
2019-05-05T07:08:06.166Z,8.97
2019-05-05T07:13:11.431Z,10.27
2019-05-05T07:18:17.664Z,9.40
2019-05-05T07:23:24.579Z,8.50
2019-05-05T07:28:29.842Z,8.13
2019-05-05T07:33:37.163Z,7.83
2019-05-05T07:38:45.919Z,7.83
2019-05-05T07:43:50.829Z,7.87
2019-05-05T07:48:55.954Z,6.93
2019-05-05T07:54:03.638Z,6.60
2019-05-05T07:59:08.387Z,6.47
2019-05-05T08:04:14.217Z,5.57
2019-05-05T08:09:21.808Z,5.30
2019-05-05T08:14:26.510Z,5.87
2019-05-05T08:19:51.271Z,5.90
2019-05-05T08:25:11.605Z,5.27
2019-05-05T08:30:40.827Z,5.23
2019-05-05T08:35:46.519Z,4.47
2019-05-05T08:40:54.272Z,4.57
2019-05-05T08:45:59.889Z,4.43
2019-05-05T08:51:04.891Z,5.30
2019-05-05T08:56:09.695Z,5.70
2019-05-05T09:01:14.959Z,7.20
2019-05-05T09:06:19.337Z,4.67
2019-05-05T09:11:24.028Z,4.70
2019-05-05T09:16:28.493Z,3.13
2019-05-05T09:21:34.535Z,2.57
2019-05-05T09:27:06.878Z,3.30
2019-05-05T09:32:11.163Z,2.90
2019-05-05T09:37:16.957Z,4.57
2019-05-05T09:42:23.637Z,2.20
2019-05-05T09:47:28.550Z,4.50
2019-05-05T09:52:34.592Z,4.07
2019-05-05T09:57:39.801Z,4.67
2019-05-05T10:02:45.287Z,8.07
2019-05-05T10:07:50.961Z,6.63
2019-05-05T10:12:56.263Z,7.03
2019-05-05T10:18:03.370Z,5.20
2019-05-05T10:23:09.702Z,5.63
2019-05-05T10:28:15.265Z,4.70
2019-05-05T10:33:20.659Z,6.57
2019-05-05T10:38:25.769Z,6.40
2019-05-05T10:43:30.794Z,7.00
2019-05-05T10:48:35.842Z,5.60
2019-05-05T10:53:40.940Z,3.40
2019-05-05T10:58:45.779Z,2.73
2019-05-05T11:03:50.969Z,3.40
2019-05-05T11:08:56.594Z,3.50
2019-05-05T11:14:03.667Z,2.60
2019-05-05T11:19:07.282Z,3.77
2019-05-05T11:24:14.683Z,4.40
2019-05-05T11:29:20.501Z,3.30
2019-05-05T11:34:30.673Z,3.40
2019-05-05T11:39:35.862Z,3.20
2019-05-05T11:44:41.165Z,2.97
2019-05-05T11:49:47.103Z,3.37
2019-05-05T11:54:54.289Z,2.50
2019-05-05T11:59:59.322Z,2.30
2019-05-05T12:05:04.833Z,2.33
2019-05-05T12:10:31.714Z,2.40
2019-05-05T12:15:37.433Z,2.77
2019-05-05T12:20:44.089Z,3.00
2019-05-05T12:26:16.685Z,2.57
2019-05-05T12:31:25.198Z,2.80
2019-05-05T12:36:28.986Z,2.57
2019-05-05T12:41:32.858Z,2.37
2019-05-05T12:46:54.713Z,1.90
2019-05-05T12:52:01.143Z,2.30
2019-05-05T12:57:05.712Z,2.57
2019-05-05T13:02:11.405Z,2.10
2019-05-05T13:07:16.709Z,2.53
2019-05-05T13:12:23.986Z,2.40
2019-05-05T13:17:29.476Z,2.10
2019-05-05T13:22:47.473Z,2.20
2019-05-05T13:27:57.219Z,1.97
2019-05-05T13:33:01.156Z,2.60
2019-05-05T13:38:06.539Z,2.00
2019-05-05T13:43:12.017Z,1.80
2019-05-05T13:48:18.061Z,2.40
2019-05-05T13:53:23.710Z,1.50
2019-05-05T13:58:28.922Z,1.70
2019-05-05T14:03:54.125Z,1.60
2019-05-05T14:09:00.491Z,1.50
2019-05-05T14:14:06.906Z,2.10
2019-05-05T14:19:14.437Z,1.73
2019-05-05T14:24:38.571Z,1.80
2019-05-05T14:29:59.797Z,1.70
2019-05-05T14:35:19.923Z,1.50
2019-05-05T14:40:25.327Z,1.40
2019-05-05T14:45:30.401Z,1.63
2019-05-05T14:50:34.953Z,1.90
2019-05-05T14:55:40.073Z,2.40
2019-05-05T15:00:45.316Z,2.90
2019-05-05T15:06:11.347Z,2.03
2019-05-05T15:11:45.727Z,2.00
2019-05-05T15:16:50.949Z,1.80
2019-05-05T15:21:57.288Z,1.73
2019-05-05T15:27:02.808Z,1.70
2019-05-05T15:32:08.153Z,2.03
2019-05-05T15:37:14.423Z,1.70
2019-05-05T15:42:19.315Z,1.90
2019-05-05T15:47:26.440Z,1.80
2019-05-05T15:52:31.798Z,2.17
2019-05-05T15:57:37.134Z,1.50
2019-05-05T16:02:41.655Z,2.10
2019-05-05T16:07:47.191Z,1.77
2019-05-05T16:12:53.824Z,1.80
2019-05-05T16:18:18.897Z,1.87
2019-05-05T16:23:30.167Z,1.70
2019-05-05T16:28:36.465Z,1.50
2019-05-05T16:33:43.992Z,1.80
2019-05-05T16:38:50.720Z,1.60
2019-05-05T16:43:57.717Z,1.60
2019-05-05T16:49:04.690Z,2.27
2019-05-05T16:54:23.965Z,2.43
2019-05-05T16:59:29.788Z,1.80
2019-05-05T17:04:35.623Z,1.80
2019-05-05T17:09:43.679Z,1.63
2019-05-05T17:14:59.357Z,1.80
2019-05-05T17:20:14.871Z,1.77
2019-05-05T17:25:20.593Z,1.90
2019-05-05T17:30:27.274Z,2.50
2019-05-05T17:35:34.379Z,2.10
2019-05-05T17:40:59.066Z,1.97
2019-05-05T17:46:18.386Z,2.10
2019-05-05T17:51:39.572Z,2.00
2019-05-05T17:56:43.561Z,3.53
2019-05-05T18:01:50.644Z,4.73
2019-05-05T18:07:10.871Z,4.97
2019-05-05T18:12:39.976Z,3.50
2019-05-05T18:17:45.351Z,4.10
2019-05-05T18:22:53.508Z,2.60
2019-05-05T18:27:58.799Z,3.10
2019-05-05T18:33:04.277Z,2.80
2019-05-05T18:38:09.251Z,2.90
2019-05-05T18:43:20.613Z,2.90
2019-05-05T18:48:26.165Z,3.60
2019-05-05T18:53:31.649Z,3.67
2019-05-05T18:58:38.293Z,4.33
2019-05-05T19:04:04.050Z,4.03
2019-05-05T19:09:10.436Z,3.80
2019-05-05T19:14:15.698Z,4.50
2019-05-05T19:19:23.590Z,4.30
2019-05-05T19:24:29.410Z,5.27
2019-05-05T19:29:35.428Z,4.97
2019-05-05T19:34:41.270Z,4.30
2019-05-05T19:39:46.350Z,4.70
2019-05-05T19:44:54.332Z,4.63
2019-05-05T19:50:10.625Z,4.03
2019-05-05T19:55:15.896Z,4.47
2019-05-05T20:00:23.457Z,4.40
2019-05-05T20:05:27.898Z,4.30
2019-05-05T20:10:33.974Z,5.00
2019-05-05T20:15:51.093Z,4.33
2019-05-05T20:21:04.016Z,4.90
2019-05-05T20:26:00.434Z,5.70
2019-05-05T20:31:04.008Z,5.43
2019-05-05T20:36:14.504Z,4.90
2019-05-05T20:41:19.845Z,4.73
2019-05-05T20:46:23.847Z,4.63
2019-05-05T20:51:28.846Z,5.20
2019-05-05T20:56:33.838Z,4.20
2019-05-05T21:01:38.385Z,5.10
2019-05-05T21:06:43.856Z,4.73
2019-05-05T21:11:48.556Z,4.90
2019-05-05T21:16:54.752Z,5.10
2019-05-05T21:22:00.830Z,5.20
2019-05-05T21:27:05.718Z,5.57
2019-05-05T21:32:10.478Z,4.57
2019-05-05T21:37:15.676Z,4.80
2019-05-05T21:42:21.062Z,4.80
2019-05-05T21:47:26.274Z,4.57
2019-05-05T21:52:49.732Z,4.70
2019-05-05T21:58:07.977Z,5.20
2019-05-05T22:03:16.751Z,7.60
2019-05-05T22:08:23.945Z,6.80
2019-05-05T22:13:29.345Z,6.00
2019-05-05T22:18:34.570Z,5.50
2019-05-05T22:23:39.320Z,5.63
2019-05-05T22:28:45.349Z,5.67
2019-05-05T22:33:50.403Z,5.93
2019-05-05T22:38:55.240Z,5.90
2019-05-05T22:44:00.014Z,5.60
2019-05-05T22:49:05.229Z,4.57
2019-05-05T22:54:10.036Z,5.27
2019-05-05T22:59:15.083Z,4.80
2019-05-05T23:04:31.402Z,4.70
2019-05-05T23:09:36.360Z,5.23
2019-05-05T23:14:41.255Z,5.17
2019-05-05T23:19:53.844Z,4.80
2019-05-05T23:25:16.933Z,4.43
2019-05-05T23:30:25.145Z,5.13
2019-05-05T23:35:30.160Z,4.87
2019-05-05T23:40:35.330Z,4.73
2019-05-05T23:45:40.231Z,5.50
2019-05-05T23:50:45.108Z,5.30
2019-05-05T23:55:49.869Z,4.77
